Search for airport 
image banner adimage banner adimage banner ad
image banner ad

0CA3 - Crawford

Located in Santa Ynez, United States

ICAO - 0CA3, IATA -

Data provided by Airmate  

General information

Coordinates: N34°35'15" W120°0'49"
Elevation is 570 feet MSL.
Magnetic variation is 14° East
View others Airports in California

Operational data

Special qualification required
Current time UTC:
Current local time:
Weather at : KIZA - Santa Ynez ( 6 km )
METAR: KIZA 211015Z AUTO 30003KT 4SM BR OVC004 12/11 A2994 RMK AO2
View NOTAMs / SUP AIP / TFR affecting this airport [VIEW]
Communications frequencies: [VIEW]

Runways:

RWY identifierQFULength (ft)Width (ft)SurfaceLDA (ft)
10210020ASPH
28210020ASPH

Airport contact information

Address: Santa Ynez United States

Satellite view of 0CA3